Time;durP1;ratioP1;P1;durP2;ratioP2;P2;SDS_P1;SDS_P2;PMS_P1;PMS_P2;Temp;Humidity;BMP_temperature;BMP_pressure;BME280_temperature;BME280_humidity;BME280_pressure;Samples;Min_cycle;Max_cycle;Signal;HPM_P1;HPM_P2
2021/03/07 00:00:56;;;;;;;6.03;1.92;;;;;;;1.25;76.32;102231.06;5122208;27;20471;-50
2021/03/07 00:03:24;;;;;;;8.30;2.80;;;;;;;1.33;76.74;102232.75;5122679;27;20231;-50
2021/03/07 00:05:51;;;;;;;8.13;2.60;;;;;;;1.32;75.82;102224.94;5118298;27;20222;-50
2021/03/07 00:08:19;;;;;;;4.73;1.90;;;;;;;1.37;75.98;102221.22;5112936;27;20573;-55
2021/03/07 00:10:46;;;;;;;7.82;1.90;;;;;;;1.27;75.92;102227.03;5129361;27;20434;-53
2021/03/07 00:13:13;;;;;;;9.43;2.77;;;;;;;1.29;76.35;102224.66;5106726;27;20293;-51
2021/03/07 00:15:40;;;;;;;25.13;1.83;;;;;;;1.24;76.50;102213.09;5124232;27;20915;-52
2021/03/07 00:18:06;;;;;;;2.95;1.30;;;;;;;1.16;76.56;102208.13;5129169;27;20242;-53
2021/03/07 00:20:35;;;;;;;8.93;2.25;;;;;;;1.14;76.58;102212.16;5125239;27;20213;-54
2021/03/07 00:23:03;;;;;;;4.27;1.50;;;;;;;1.07;76.79;102204.59;5117352;27;20684;-49
2021/03/07 00:25:30;;;;;;;5.75;2.90;;;;;;;1.12;76.77;102206.00;5129186;27;20568;-51
2021/03/07 00:27:56;;;;;;;4.80;2.00;;;;;;;1.13;76.83;102205.25;5131456;27;20318;-50
2021/03/07 00:30:23;;;;;;;8.10;3.00;;;;;;;1.17;77.30;102201.38;5116790;27;20612;-51
2021/03/07 00:32:50;;;;;;;11.37;2.43;;;;;;;1.11;76.78;102191.47;5121151;27;20450;-49
2021/03/07 00:35:16;;;;;;;8.23;1.90;;;;;;;1.12;77.06;102194.94;5130765;27;20427;-49
2021/03/07 00:37:44;;;;;;;7.60;3.50;;;;;;;1.11;76.73;102201.66;5119637;27;20255;-51
2021/03/07 00:40:12;;;;;;;4.38;2.10;;;;;;;1.14;77.28;102193.44;5122598;27;20585;-50
2021/03/07 00:42:42;;;;;;;3.25;1.25;;;;;;;1.06;76.85;102196.09;5121365;27;20240;-52
2021/03/07 00:45:10;;;;;;;8.60;3.47;;;;;;;1.10;77.25;102193.88;5117425;27;20250;-49
2021/03/07 00:47:37;;;;;;;6.90;2.20;;;;;;;1.11;77.30;102191.47;5127106;27;20231;-53
2021/03/07 00:50:07;;;;;;;4.30;1.80;;;;;;;1.10;77.29;102194.78;5130528;27;20466;-53
2021/03/07 00:52:34;;;;;;;4.83;1.87;;;;;;;1.07;77.44;102190.28;5121901;27;20223;-55
2021/03/07 00:55:02;;;;;;;7.85;1.73;;;;;;;1.04;77.26;102178.88;5116769;27;20498;-53
2021/03/07 00:57:29;;;;;;;7.45;1.98;;;;;;;1.09;77.24;102175.19;5123753;27;20250;-50
2021/03/07 00:59:56;;;;;;;5.50;2.30;;;;;;;1.13;77.25;102176.41;5133996;27;20208;-48
2021/03/07 01:02:23;;;;;;;3.85;1.98;;;;;;;1.14;76.82;102171.47;5125363;27;20198;-55
2021/03/07 01:04:50;;;;;;;15.00;5.05;;;;;;;1.18;77.34;102168.47;5122863;28;20235;-53
2021/03/07 01:07:17;;;;;;;8.90;1.80;;;;;;;1.17;76.17;102170.84;5122650;28;20332;-54
2021/03/07 01:09:43;;;;;;;5.63;2.45;;;;;;;1.23;76.04;102162.97;5142997;27;20728;-52
2021/03/07 01:12:11;;;;;;;7.45;1.90;;;;;;;1.21;75.64;102155.19;5136052;27;20301;-49
2021/03/07 01:14:38;;;;;;;7.45;3.35;;;;;;;1.24;75.65;102152.06;5135193;28;20231;-49
2021/03/07 01:17:04;;;;;;;3.97;1.90;;;;;;;1.19;76.35;102144.84;5135751;28;20590;-55
2021/03/07 01:19:32;;;;;;;3.27;1.30;;;;;;;1.15;75.48;102145.31;5126443;28;20234;-52
2021/03/07 01:21:59;;;;;;;5.10;2.20;;;;;;;1.21;75.98;102152.66;5135928;28;20529;-53
2021/03/07 01:24:26;;;;;;;3.72;1.60;;;;;;;1.23;75.53;102145.19;5133897;28;20253;-53
2021/03/07 01:26:52;;;;;;;8.70;1.75;;;;;;;1.25;75.45;102138.59;5135237;28;20202;-51
2021/03/07 01:29:20;;;;;;;6.25;1.77;;;;;;;1.16;75.47;102134.38;5133383;28;20234;-53
2021/03/07 01:31:46;;;;;;;4.93;1.55;;;;;;;1.18;75.25;102130.34;5136079;28;20203;-50
2021/03/07 01:34:13;;;;;;;7.75;2.58;;;;;;;1.21;75.22;102135.75;5133718;28;20275;-49
2021/03/07 01:36:40;;;;;;;7.53;2.63;;;;;;;1.24;75.81;102130.09;5135990;28;20203;-54
2021/03/07 01:39:07;;;;;;;14.57;2.25;;;;;;;1.16;76.48;102119.13;5134113;28;20257;-53
2021/03/07 01:41:34;;;;;;;10.43;1.90;;;;;;;1.09;77.15;102119.25;5135771;28;20202;-49
2021/03/07 01:44:00;;;;;;;7.53;2.90;;;;;;;1.14;77.13;102114.63;5133044;28;20234;-54
2021/03/07 01:46:28;;;;;;;10.20;3.75;;;;;;;1.09;77.52;102126.88;5135378;28;20213;-51
2021/03/07 01:48:55;;;;;;;4.85;2.33;;;;;;;1.16;77.82;102115.66;5134168;28;20223;-50
2021/03/07 01:51:22;;;;;;;7.00;2.53;;;;;;;1.11;78.19;102110.13;5135614;28;20202;-49
2021/03/07 01:53:49;;;;;;;11.38;2.22;;;;;;;1.00;78.13;102108.13;5134182;28;20317;-51
2021/03/07 01:56:17;;;;;;;5.85;2.08;;;;;;;0.99;78.45;102103.78;5135324;28;20290;-48
2021/03/07 01:58:45;;;;;;;8.88;2.40;;;;;;;1.10;78.03;102094.72;5133792;28;20321;-51
2021/03/07 02:01:12;;;;;;;11.80;4.55;;;;;;;1.08;78.62;102094.56;5135521;28;20207;-48
2021/03/07 02:03:50;;;;;;;8.38;2.90;;;;;;;1.10;78.59;102103.25;5133384;28;20238;-49
2021/03/07 02:06:17;;;;;;;6.53;2.60;;;;;;;1.18;78.16;102091.31;5135089;28;20219;-50
2021/03/07 02:08:44;;;;;;;13.50;4.05;;;;;;;1.17;78.94;102087.88;5133638;28;20482;-49
2021/03/07 02:11:11;;;;;;;9.60;3.35;;;;;;;1.12;78.00;102081.41;5134797;28;20517;-49
2021/03/07 02:13:38;;;;;;;4.88;2.05;;;;;;;1.08;78.07;102085.28;5135825;27;20264;-50
2021/03/07 02:16:07;;;;;;;5.40;2.17;;;;;;;1.15;77.64;102081.75;5138608;27;20204;-51
2021/03/07 02:18:35;;;;;;;8.10;2.33;;;;;;;1.15;78.61;102069.03;5136823;27;20489;-48
2021/03/07 02:21:05;;;;;;;7.65;2.55;;;;;;;1.20;78.31;102075.47;5138424;27;20596;-50
2021/03/07 02:23:34;;;;;;;8.55;1.85;;;;;;;1.15;78.03;102069.03;5117317;27;20246;-52
2021/03/07 02:26:03;;;;;;;10.52;4.03;;;;;;;1.20;78.43;102065.31;5138471;27;20222;-51
2021/03/07 02:28:30;;;;;;;5.30;2.10;;;;;;;1.16;78.01;102063.19;5121296;27;20235;-49
2021/03/07 02:30:56;;;;;;;5.23;2.30;;;;;;;1.17;78.00;102054.81;5138308;27;20206;-52
2021/03/07 02:33:26;;;;;;;12.30;3.03;;;;;;;1.19;78.31;102052.44;5124256;27;20455;-49
2021/03/07 02:35:57;;;;;;;3.22;1.60;;;;;;;1.13;77.48;102052.69;5138035;27;20213;-48
2021/03/07 02:38:24;;;;;;;9.35;3.33;;;;;;;1.15;77.48;102048.69;5125015;27;20249;-49
2021/03/07 02:40:54;;;;;;;5.00;2.27;;;;;;;1.22;77.65;102037.47;5138556;27;20635;-50
2021/03/07 02:43:22;;;;;;;8.70;2.13;;;;;;;1.18;77.62;102038.81;5130615;27;20478;-53
2021/03/07 02:45:49;;;;;;;9.80;2.38;;;;;;;1.19;77.52;102037.19;5137857;27;20458;-50
2021/03/07 02:48:21;;;;;;;12.07;3.28;;;;;;;1.30;77.63;102033.16;5123571;27;20322;-49
2021/03/07 02:50:48;;;;;;;7.00;2.65;;;;;;;1.26;77.06;102028.50;5136109;27;20267;-50
2021/03/07 02:53:18;;;;;;;5.70;2.10;;;;;;;1.14;76.71;102034.19;5121135;27;20675;-51
2021/03/07 02:55:47;;;;;;;8.93;2.50;;;;;;;1.20;76.26;102029.72;5137599;27;20471;-48
2021/03/07 02:58:15;;;;;;;5.43;1.80;;;;;;;1.20;76.52;102029.72;5125890;27;20874;-49
2021/03/07 03:00:49;;;;;;;9.80;2.37;;;;;;;1.27;76.74;102026.13;5138239;27;20514;-49
2021/03/07 03:03:18;;;;;;;11.05;3.47;;;;;;;1.29;76.57;102018.66;5126006;27;20464;-49
2021/03/07 03:05:45;;;;;;;6.90;2.42;;;;;;;1.25;76.49;102022.53;5138010;27;20224;-51
2021/03/07 03:08:14;;;;;;;7.63;2.75;;;;;;;1.14;76.62;102012.94;5125521;27;20666;-48
2021/03/07 03:10:41;;;;;;;5.00;1.70;;;;;;;1.20;76.42;102008.44;5137371;27;20569;-51
2021/03/07 03:13:20;;;;;;;7.70;2.30;;;;;;;1.22;76.13;102012.03;5127231;27;20541;-54
2021/03/07 03:15:48;;;;;;;10.03;4.13;;;;;;;1.23;76.16;102008.75;5137166;27;20453;-50
2021/03/07 03:18:16;;;;;;;8.35;2.35;;;;;;;1.27;76.50;102007.44;5136707;27;20499;-49
2021/03/07 03:20:43;;;;;;;5.50;2.20;;;;;;;1.23;75.93;102006.19;5137897;27;20596;-50
2021/03/07 03:23:10;;;;;;;6.80;2.50;;;;;;;1.22;75.70;102006.94;5136390;27;20476;-49
2021/03/07 03:25:37;;;;;;;6.18;2.15;;;;;;;1.28;75.28;102001.59;5138134;27;20222;-50
2021/03/07 03:28:04;;;;;;;7.82;3.53;;;;;;;1.33;77.11;101997.88;5125626;27;20242;-51
2021/03/07 03:30:30;;;;;;;8.20;3.13;;;;;;;1.19;75.96;101996.50;5137666;27;20194;-51
2021/03/07 03:32:58;;;;;;;8.20;2.88;;;;;;;1.17;76.00;101993.78;5136404;27;20231;-50
2021/03/07 03:35:25;;;;;;;4.90;1.92;;;;;;;1.13;76.07;101990.78;5137355;27;20195;-49
2021/03/07 03:37:51;;;;;;;11.63;3.15;;;;;;;1.24;76.07;101991.84;5136524;27;20242;-50
2021/03/07 03:40:20;;;;;;;8.48;2.15;;;;;;;1.15;75.92;101990.19;5138218;27;20194;-49
2021/03/07 03:42:51;;;;;;;5.43;2.60;;;;;;;1.22;76.75;101986.59;5126608;27;20230;-50
2021/03/07 03:45:18;;;;;;;11.02;3.40;;;;;;;1.23;76.75;101988.41;5136781;27;20303;-49
2021/03/07 03:47:47;;;;;;;25.60;9.00;;;;;;;1.17;77.39;101988.69;5120934;27;20322;-48
2021/03/07 03:50:15;;;;;;;8.75;3.38;;;;;;;1.13;78.35;101985.72;5136813;27;20504;-51
2021/03/07 03:52:42;;;;;;;6.05;2.55;;;;;;;1.06;78.62;101986.72;5125690;27;20667;-49
2021/03/07 03:55:11;;;;;;;9.77;3.17;;;;;;;1.12;78.87;101973.75;5136550;27;20278;-49
2021/03/07 03:57:38;;;;;;;8.75;3.17;;;;;;;1.11;79.12;101971.94;5120029;27;20226;-50
2021/03/07 04:00:07;;;;;;;12.63;3.92;;;;;;;1.14;79.46;101973.16;5136956;27;20195;-48
2021/03/07 04:02:35;;;;;;;8.80;3.47;;;;;;;1.19;79.16;101969.41;5119919;27;20573;-52
2021/03/07 04:05:06;;;;;;;7.20;2.65;;;;;;;1.18;78.96;101969.28;5135680;27;20628;-49
2021/03/07 04:07:34;;;;;;;9.48;3.50;;;;;;;1.23;78.96;101967.19;5123099;27;20237;-49
2021/03/07 04:10:01;;;;;;;9.38;4.88;;;;;;;1.26;78.93;101964.91;5135957;27;20202;-50
2021/03/07 04:12:28;;;;;;;8.00;3.05;;;;;;;1.20;78.62;101972.84;5135484;27;20208;-48
2021/03/07 04:14:55;;;;;;;16.67;5.55;;;;;;;1.27;78.75;101969.28;5136343;27;20294;-54
2021/03/07 04:17:24;;;;;;;12.63;3.40;;;;;;;1.27;78.50;101959.13;5126812;27;20195;-50
2021/03/07 04:19:51;;;;;;;6.28;2.65;;;;;;;1.23;77.81;101957.00;5136708;27;20484;-50
2021/03/07 04:22:17;;;;;;;9.63;3.80;;;;;;;1.15;77.49;101959.69;5128779;27;20203;-49
2021/03/07 04:24:45;;;;;;;10.15;3.28;;;;;;;1.26;77.32;101958.22;5136004;27;20557;-50
2021/03/07 04:27:21;;;;;;;8.85;3.30;;;;;;;1.26;77.03;101957.28;5134025;27;20195;-54
2021/03/07 04:29:48;;;;;;;7.82;2.97;;;;;;;1.34;76.97;101952.22;5136027;27;20313;-49
2021/03/07 04:32:20;;;;;;;7.57;2.53;;;;;;;1.29;76.60;101948.31;5122659;27;20219;-50
2021/03/07 04:34:47;;;;;;;7.13;2.28;;;;;;;1.28;76.28;101946.53;5135204;27;20225;-50
2021/03/07 04:37:21;;;;;;;7.57;2.47;;;;;;;1.15;76.53;101946.06;5123688;27;20671;-49
2021/03/07 04:39:49;;;;;;;10.55;2.92;;;;;;;1.20;76.64;101948.34;5136401;27;20647;-52
2021/03/07 04:42:18;;;;;;;6.40;2.40;;;;;;;1.24;75.95;101951.16;5119001;27;20668;-52
2021/03/07 04:44:45;;;;;;;5.63;2.10;;;;;;;1.19;75.92;101936.34;5134573;27;20480;-51
2021/03/07 04:47:12;;;;;;;3.75;2.10;;;;;;;1.17;76.04;101942.03;5135130;27;20217;-55
2021/03/07 04:49:39;;;;;;;8.35;2.22;;;;;;;1.24;75.97;101943.53;5136142;27;20223;-49
2021/03/07 04:52:05;;;;;;;4.15;1.70;;;;;;;1.23;75.91;101936.66;5135976;27;20290;-48
2021/03/07 04:54:32;;;;;;;6.30;2.50;;;;;;;1.24;75.66;101949.53;5134353;27;20666;-55
2021/03/07 04:57:02;;;;;;;6.65;2.80;;;;;;;1.22;75.78;101935.75;5136076;27;20927;-51
2021/03/07 04:59:29;;;;;;;5.28;2.17;;;;;;;1.21;76.14;101929.78;5134025;27;20238;-51
2021/03/07 05:01:55;;;;;;;4.32;2.22;;;;;;;1.23;75.92;101936.66;5135531;28;20237;-49
2021/03/07 05:04:22;;;;;;;9.03;3.27;;;;;;;1.27;76.11;101938.78;5134095;27;20230;-50
2021/03/07 05:06:49;;;;;;;9.07;2.92;;;;;;;1.21;76.21;101937.41;5136011;27;20538;-50
2021/03/07 05:09:15;;;;;;;6.57;2.78;;;;;;;1.20;76.52;101922.91;5133826;28;20244;-48
2021/03/07 05:11:42;;;;;;;7.65;3.33;;;;;;;1.23;76.12;101936.66;5136212;28;20199;-48
2021/03/07 05:14:10;;;;;;;7.32;3.05;;;;;;;1.27;76.84;101928.59;5123255;28;20591;-49
2021/03/07 05:16:37;;;;;;;4.78;2.58;;;;;;;1.23;76.50;101931.56;5135615;28;20195;-49
2021/03/07 05:19:04;;;;;;;4.47;2.75;;;;;;;1.23;76.59;101916.31;5133736;28;20230;-50
2021/03/07 05:21:31;;;;;;;10.10;3.90;;;;;;;1.25;76.96;101909.72;5150259;27;20210;-53
2021/03/07 05:24:00;;;;;;;6.00;3.23;;;;;;;1.31;76.99;101907.78;5132113;28;20237;-52
2021/03/07 05:26:28;;;;;;;9.70;4.47;;;;;;;1.28;77.17;101907.50;5135655;28;20488;-51
2021/03/07 05:28:54;;;;;;;12.38;3.95;;;;;;;1.31;77.59;101902.69;5133807;28;20602;-52
2021/03/07 05:31:22;;;;;;;7.35;3.13;;;;;;;1.27;76.73;101908.25;5135569;28;20213;-51
2021/03/07 05:33:49;;;;;;;10.75;3.40;;;;;;;1.37;76.95;101903.31;5119172;28;20305;-53
2021/03/07 05:36:16;;;;;;;8.90;2.63;;;;;;;1.33;76.99;101897.03;5135047;28;20217;-49
2021/03/07 05:38:43;;;;;;;8.20;3.25;;;;;;;1.28;76.73;101905.84;5121564;28;20238;-48
2021/03/07 05:41:11;;;;;;;14.02;3.28;;;;;;;1.26;76.60;101903.91;5135728;28;20209;-51
2021/03/07 05:43:38;;;;;;;13.27;4.70;;;;;;;1.31;76.95;101905.25;5128243;28;20647;-51
2021/03/07 05:46:05;;;;;;;8.77;2.78;;;;;;;1.32;76.96;101900.31;5135490;28;20536;-50
2021/03/07 05:48:33;;;;;;;9.32;3.90;;;;;;;1.39;76.83;101884.00;5137626;27;20231;-49
2021/03/07 05:51:00;;;;;;;9.00;3.40;;;;;;;1.35;77.06;101894.63;5140064;27;20492;-53
2021/03/07 05:53:30;;;;;;;10.38;3.80;;;;;;;1.34;76.67;101891.19;5128392;27;20238;-50
2021/03/07 05:55:56;;;;;;;8.85;3.70;;;;;;;1.35;76.78;101887.00;5139485;27;20203;-50
2021/03/07 05:58:26;;;;;;;5.80;2.67;;;;;;;1.33;77.07;101893.59;5138103;27;20241;-54
2021/03/07 06:00:52;;;;;;;8.88;3.20;;;;;;;1.33;77.46;101879.22;5139985;27;20200;-51
2021/03/07 06:03:20;;;;;;;7.93;3.40;;;;;;;1.37;76.92;101884.63;5130622;27;20230;-48
2021/03/07 06:05:50;;;;;;;8.67;3.70;;;;;;;1.40;76.82;101883.28;5139475;27;20219;-53
2021/03/07 06:08:18;;;;;;;10.55;4.13;;;;;;;1.38;76.83;101882.19;5127164;27;20806;-51
2021/03/07 06:10:45;;;;;;;10.73;3.78;;;;;;;1.29;77.02;101886.41;5139194;27;20564;-50
2021/03/07 06:13:12;;;;;;;12.55;3.35;;;;;;;1.32;77.30;101887.59;5134745;27;20325;-51
2021/03/07 06:15:49;;;;;;;9.55;3.80;;;;;;;1.33;77.21;101879.22;5124089;27;20199;-48
2021/03/07 06:18:17;;;;;;;6.28;3.83;;;;;;;1.31;77.20;101873.09;5122446;27;20682;-49
2021/03/07 06:20:45;;;;;;;12.93;3.60;;;;;;;1.31;77.09;101870.56;5138772;27;20199;-50
2021/03/07 06:23:13;;;;;;;9.60;3.30;;;;;;;1.33;76.79;101879.22;5130232;27;20549;-49
2021/03/07 06:25:51;;;;;;;8.80;4.40;;;;;;;1.37;76.92;101869.34;5138578;27;20305;-49
2021/03/07 06:28:20;;;;;;;14.68;3.90;;;;;;;1.45;76.79;101868.44;5129060;27;20472;-52
2021/03/07 06:30:46;;;;;;;13.68;4.28;;;;;;;1.40;77.00;101870.56;5138527;27;20202;-48
2021/03/07 06:33:28;;;;;;;7.53;3.40;;;;;;;1.51;75.54;101868.13;5128943;27;20242;-52
2021/03/07 06:36:14;;;;;;;9.05;3.92;;;;;;;1.47;75.36;101885.66;5158562;27;20761;-50
2021/03/07 06:38:46;;;;;;;9.10;3.73;;;;;;;1.51;74.95;101875.75;5158429;27;20238;-51
2021/03/07 06:41:19;;;;;;;10.70;4.35;;;;;;;1.51;73.42;101878.28;5159741;27;20425;-49
2021/03/07 06:43:46;;;;;;;9.90;4.72;;;;;;;1.56;73.09;101866.94;5151070;27;20237;-49
2021/03/07 06:46:30;;;;;;;8.80;3.90;;;;;;;1.50;72.75;101879.06;5159214;27;20322;-50
2021/03/07 06:48:57;;;;;;;9.85;3.65;;;;;;;1.55;71.85;101866.03;5132045;27;20487;-53
2021/03/07 06:51:26;;;;;;;11.10;4.07;;;;;;;1.53;70.39;101869.19;5159232;27;20198;-50
2021/03/07 06:53:53;;;;;;;5.57;2.40;;;;;;;1.43;69.56;101886.09;5136238;27;20481;-53
2021/03/07 06:56:40;;;;;;;6.38;2.60;;;;;;;1.53;69.43;101861.56;5138244;27;20479;-49
2021/03/07 06:59:11;;;;;;;7.47;3.25;;;;;;;1.47;69.18;101872.94;5153118;27;20239;-51
2021/03/07 07:01:42;;;;;;;6.05;2.60;;;;;;;1.44;68.11;101872.63;5159142;27;20239;-52
2021/03/07 07:04:10;;;;;;;10.47;4.57;;;;;;;1.56;68.52;101882.19;5140520;27;20817;-49
2021/03/07 07:06:38;;;;;;;10.20;3.30;;;;;;;1.55;68.18;101872.75;5127855;27;20552;-49
2021/03/07 07:09:07;;;;;;;7.47;3.40;;;;;;;1.51;67.86;101870.66;5142120;27;20483;-50
2021/03/07 07:11:54;;;;;;;6.85;3.25;;;;;;;1.51;67.90;101869.03;5158890;27;20249;-51
2021/03/07 07:14:30;;;;;;;7.05;2.88;;;;;;;1.55;67.89;101870.22;5143938;27;20231;-48
2021/03/07 07:16:57;;;;;;;11.85;4.20;;;;;;;1.57;67.67;101858.53;5159328;27;20540;-49
2021/03/07 07:19:24;;;;;;;7.15;2.50;;;;;;;1.58;67.38;101850.16;5146016;27;20246;-51
2021/03/07 07:21:50;;;;;;;3.58;1.60;;;;;;;1.55;67.21;101849.88;5157898;27;20208;-48
2021/03/07 07:24:18;;;;;;;10.20;3.00;;;;;;;1.54;67.51;101855.72;5137559;27;20243;-50
2021/03/07 07:26:45;;;;;;;8.43;3.30;;;;;;;1.52;67.48;101849.56;5158281;27;20487;-51
2021/03/07 07:29:12;;;;;;;5.63;2.07;;;;;;;1.56;67.46;101854.22;5121328;27;20463;-50
2021/03/07 07:31:44;;;;;;;8.53;3.10;;;;;;;1.54;67.43;101856.59;5137920;27;20729;-51
2021/03/07 07:34:14;;;;;;;11.77;2.90;;;;;;;1.61;67.34;101848.81;5123997;27;20507;-51
2021/03/07 07:36:45;;;;;;;6.20;3.17;;;;;;;1.62;67.70;101842.06;5141293;27;20454;-50
2021/03/07 07:39:13;;;;;;;7.43;2.00;;;;;;;1.60;67.90;101839.38;5134876;27;20476;-51
2021/03/07 07:41:41;;;;;;;5.60;2.40;;;;;;;1.59;68.08;101840.13;5143137;27;20489;-48
2021/03/07 07:44:10;;;;;;;8.00;2.77;;;;;;;1.60;68.69;101839.38;5131088;27;20749;-51
2021/03/07 07:46:56;;;;;;;5.45;2.55;;;;;;;1.66;68.62;101846.72;5150070;27;20475;-49
2021/03/07 07:49:46;;;;;;;10.03;2.83;;;;;;;1.69;69.30;101841.91;5139289;27;20655;-52
2021/03/07 07:52:35;;;;;;;9.57;2.40;;;;;;;1.62;68.81;101844.63;5146205;27;20455;-54
2021/03/07 07:55:09;;;;;;;9.70;3.55;;;;;;;1.60;69.22;101839.38;5151397;27;20206;-51
2021/03/07 07:57:45;;;;;;;7.97;2.40;;;;;;;1.63;69.05;101831.13;5141756;27;20724;-52
2021/03/07 08:00:13;;;;;;;13.70;4.23;;;;;;;1.68;69.65;101836.66;5153964;27;20260;-52
2021/03/07 08:02:56;;;;;;;10.03;2.23;;;;;;;1.68;69.23;101832.47;5138602;27;20460;-54
2021/03/07 08:05:43;;;;;;;17.77;5.17;;;;;;;1.72;69.57;101838.75;5150338;27;20458;-52
2021/03/07 08:08:15;;;;;;;19.13;4.67;;;;;;;1.88;69.63;101836.00;5135033;27;20879;-49
2021/03/07 08:10:47;;;;;;;10.63;3.70;;;;;;;1.84;69.14;101828.84;5152698;27;20470;-52
2021/03/07 08:13:16;;;;;;;7.00;1.73;;;;;;;1.83;69.17;101834.66;5151794;27;20849;-51
2021/03/07 08:15:44;;;;;;;7.78;2.35;;;;;;;1.85;69.54;101830.63;5154237;27;20463;-52
2021/03/07 08:18:12;;;;;;;11.30;3.60;;;;;;;1.89;69.18;101828.53;5150350;27;20314;-52
2021/03/07 08:21:01;;;;;;;10.33;3.33;;;;;;;1.82;68.92;101825.25;5154319;27;20426;-50
2021/03/07 08:23:28;;;;;;;2.50;1.10;;;;;;;1.71;69.46;101832.78;5128089;27;20478;-50
2021/03/07 08:26:01;;;;;;;17.87;6.57;;;;;;;1.93;69.73;101827.16;5154453;27;20627;-51
2021/03/07 08:28:42;;;;;;;11.80;3.27;;;;;;;1.90;69.26;101819.25;5129356;27;20758;-48
2021/03/07 08:31:32;;;;;;;7.93;2.67;;;;;;;1.90;69.60;101816.69;5118986;27;20443;-49
2021/03/07 08:34:23;;;;;;;9.90;2.47;;;;;;;1.95;69.58;101812.03;5128670;27;20518;-48
2021/03/07 08:36:59;;;;;;;8.57;2.37;;;;;;;1.95;69.22;101802.72;5128912;27;20837;-50
2021/03/07 08:39:29;;;;;;;29.73;9.57;;;;;;;2.09;70.64;101815.84;5126316;27;20462;-52
2021/03/07 08:42:01;;;;;;;7.10;2.13;;;;;;;2.01;68.86;101808.41;5136478;27;20461;-52
2021/03/07 08:44:29;;;;;;;5.90;1.93;;;;;;;1.94;69.56;101805.16;5135063;27;20476;-51
2021/03/07 08:46:59;;;;;;;30.13;9.07;;;;;;;2.20;70.63;101811.78;5133347;27;20488;-55
2021/03/07 08:49:28;;;;;;;9.03;2.50;;;;;;;2.10;68.94;101807.47;5119182;27;20819;-52
2021/03/07 08:52:01;;;;;;;6.17;1.93;;;;;;;2.06;69.19;101811.41;5136664;27;20875;-55
2021/03/07 08:54:30;;;;;;;22.97;8.20;;;;;;;2.23;70.02;101810.41;5134727;27;20476;-55
2021/03/07 08:56:57;;;;;;;27.23;9.83;;;;;;;2.25;69.11;101808.00;5118443;28;20474;-50
2021/03/07 08:59:26;;;;;;;9.70;3.00;;;;;;;2.22;69.22;101808.63;5114275;28;20461;-49
2021/03/07 09:01:55;;;;;;;6.43;2.20;;;;;;;2.34;68.81;101793.56;5116105;28;20490;-52
2021/03/07 09:04:22;;;;;;;10.27;4.70;;;;;;;2.35;68.82;101790.25;5133830;27;20458;-51
2021/03/07 09:06:49;;;;;;;4.33;1.53;;;;;;;2.38;68.63;101785.44;5135823;27;20456;-49
2021/03/07 09:09:17;;;;;;;18.17;6.10;;;;;;;2.64;68.67;101793.66;5134763;27;20486;-51
2021/03/07 09:11:49;;;;;;;8.20;2.40;;;;;;;2.56;68.17;101788.75;5136449;28;20452;-49
2021/03/07 09:14:16;;;;;;;7.47;2.07;;;;;;;2.61;68.00;101789.19;5134506;28;21188;-49
2021/03/07 09:16:44;;;;;;;5.37;2.10;;;;;;;2.60;67.82;101782.28;5135436;28;20426;-50
2021/03/07 09:19:22;;;;;;;13.70;4.00;;;;;;;2.72;68.75;101781.63;5132583;27;20472;-54
2021/03/07 09:22:08;;;;;;;17.07;6.40;;;;;;;2.75;67.19;101774.22;5135913;27;20867;-51
2021/03/07 09:24:34;;;;;;;7.67;3.00;;;;;;;2.84;67.69;101783.59;5136328;27;20828;-49
2021/03/07 09:27:08;;;;;;;10.07;3.30;;;;;;;2.87;67.24;101772.78;5139814;27;20544;-49
2021/03/07 09:29:35;;;;;;;11.07;3.23;;;;;;;2.90;66.80;101777.25;5135900;27;20475;-49
2021/03/07 09:32:02;;;;;;;10.57;2.73;;;;;;;3.01;66.42;101770.56;5139950;27;20459;-52
2021/03/07 09:34:33;;;;;;;7.33;2.47;;;;;;;2.97;66.11;101784.69;5125637;27;20511;-47
2021/03/07 09:37:00;;;;;;;5.00;2.27;;;;;;;3.01;66.04;101791.88;5119838;28;20476;-49
2021/03/07 09:39:26;;;;;;;6.23;2.17;;;;;;;2.95;66.42;101776.94;5118121;28;20550;-54
2021/03/07 09:41:53;;;;;;;6.83;2.40;;;;;;;3.06;66.20;101789.72;5130775;27;20534;-49
2021/03/07 09:44:21;;;;;;;11.83;2.20;;;;;;;3.09;66.10;101783.22;5114211;27;20488;-51
2021/03/07 09:46:50;;;;;;;7.00;2.27;;;;;;;3.03;66.46;101774.16;5129536;27;20485;-48
2021/03/07 09:49:23;;;;;;;3.60;1.20;;;;;;;2.98;66.33;101781.41;5122951;27;20450;-54
2021/03/07 09:51:52;;;;;;;8.70;1.73;;;;;;;2.97;66.20;101784.69;5129991;27;20446;-53
2021/03/07 09:54:19;;;;;;;5.70;1.50;;;;;;;2.93;66.69;101777.53;5104431;28;20489;-49
2021/03/07 09:56:47;;;;;;;5.97;2.17;;;;;;;3.04;66.42;101775.94;5118407;28;20471;-49
2021/03/07 09:59:16;;;;;;;10.60;3.00;;;;;;;3.08;66.29;101773.78;5105163;28;20988;-50
2021/03/07 10:01:44;;;;;;;7.70;1.53;;;;;;;3.14;66.08;101767.44;5118273;28;20424;-50
2021/03/07 10:04:31;;;;;;;8.33;2.97;;;;;;;3.17;66.12;101749.88;5105606;28;20480;-53
2021/03/07 10:06:59;;;;;;;6.40;2.30;;;;;;;3.15;65.68;101761.59;5118301;28;20908;-50
2021/03/07 10:09:26;;;;;;;14.93;2.67;;;;;;;3.31;66.14;101769.84;5116488;28;20480;-51
2021/03/07 10:12:01;;;;;;;12.10;3.30;;;;;;;3.37;65.74;101761.81;5118308;28;20914;-52
2021/03/07 10:14:29;;;;;;;8.30;2.37;;;;;;;3.41;65.60;101762.97;5116710;28;20472;-50
2021/03/07 10:16:57;;;;;;;7.17;2.53;;;;;;;3.42;65.21;101759.66;5117869;28;20460;-51
2021/03/07 10:19:33;;;;;;;4.47;1.70;;;;;;;3.34;65.55;101756.44;5113875;28;20501;-51
2021/03/07 10:22:03;;;;;;;7.00;2.07;;;;;;;3.46;65.28;101761.72;5118117;28;20544;-49
2021/03/07 10:24:30;;;;;;;9.33;2.07;;;;;;;3.52;65.13;101764.78;5116486;28;20561;-52
2021/03/07 10:27:02;;;;;;;9.30;2.20;;;;;;;3.57;65.13;101755.88;5118149;28;20784;-50
2021/03/07 10:29:30;;;;;;;4.77;2.03;;;;;;;3.63;65.12;101751.31;5116293;28;20491;-54
2021/03/07 10:32:18;;;;;;;5.40;2.13;;;;;;;3.67;65.04;101751.56;5133087;27;20435;-52
2021/03/07 10:34:48;;;;;;;3.13;0.90;;;;;;;3.79;65.14;101732.19;5126821;27;20472;-51
2021/03/07 10:37:39;;;;;;;10.23;3.43;;;;;;;3.73;65.34;101741.88;5117058;27;20457;-54
2021/03/07 10:40:08;;;;;;;7.00;2.27;;;;;;;3.73;65.36;101754.63;5134115;27;20814;-49
2021/03/07 10:42:36;;;;;;;7.67;1.70;;;;;;;3.75;65.31;101742.91;5133557;27;20761;-52
2021/03/07 10:45:16;;;;;;;6.00;2.30;;;;;;;3.70;65.71;101752.72;5130149;27;20480;-52
2021/03/07 10:47:43;;;;;;;7.47;2.23;;;;;;;3.55;65.49;101746.31;5132004;27;20499;-52
2021/03/07 10:50:11;;;;;;;6.77;2.50;;;;;;;3.49;65.88;101751.78;5120369;27;20511;-51
2021/03/07 10:52:39;;;;;;;8.10;2.63;;;;;;;3.60;65.65;101739.94;5137168;27;20460;-53
2021/03/07 10:55:14;;;;;;;7.47;2.90;;;;;;;3.67;66.18;101746.44;5138111;27;20435;-52
2021/03/07 10:57:43;;;;;;;6.80;2.80;;;;;;;3.60;65.76;101730.59;5136533;27;20500;-49
2021/03/07 11:00:11;;;;;;;7.80;3.33;;;;;;;3.55;65.50;101733.53;5138807;27;20431;-53
2021/03/07 11:02:37;;;;;;;8.23;3.20;;;;;;;3.49;65.27;101739.03;5137115;27;20483;-48
2021/03/07 11:05:06;;;;;;;4.87;2.13;;;;;;;3.37;64.84;101732.09;5137883;27;20486;-52
2021/03/07 11:07:32;;;;;;;4.20;1.80;;;;;;;3.27;66.14;101726.94;5136785;27;20476;-51
2021/03/07 11:10:00;;;;;;;4.97;2.80;;;;;;;3.24;66.50;101724.16;5138199;27;20441;-52
2021/03/07 11:12:27;;;;;;;9.90;3.23;;;;;;;3.28;66.56;101728.72;5124760;27;20542;-54
2021/03/07 11:14:54;;;;;;;6.23;2.00;;;;;;;3.28;66.71;101726.19;5137200;27;20459;-51
2021/03/07 11:17:20;;;;;;;6.83;2.80;;;;;;;3.23;66.71;101727.47;5137045;27;20423;-54
2021/03/07 11:19:47;;;;;;;10.33;3.87;;;;;;;3.15;66.52;101738.63;5138027;27;20483;-53
2021/03/07 11:22:18;;;;;;;9.90;4.03;;;;;;;3.24;66.65;101729.25;5132306;27;20431;-55
2021/03/07 11:24:45;;;;;;;7.50;3.20;;;;;;;3.25;66.43;101741.22;5137674;27;20465;-53
2021/03/07 11:27:12;;;;;;;6.00;2.73;;;;;;;3.13;66.87;101719.75;5136800;27;20481;-56
2021/03/07 11:29:39;;;;;;;15.93;4.33;;;;;;;3.15;67.19;101708.03;5134922;27;20494;-51
2021/03/07 11:32:06;;;;;;;9.80;4.13;;;;;;;3.18;67.25;101723.59;5135073;27;20512;-53
2021/03/07 11:34:33;;;;;;;11.37;3.87;;;;;;;3.13;67.64;101717.22;5127802;27;20495;-48
2021/03/07 11:37:00;;;;;;;9.87;4.63;;;;;;;3.19;68.12;101710.09;5137648;27;20458;-51
2021/03/07 11:39:27;;;;;;;13.90;5.90;;;;;;;3.14;68.66;101713.88;5126550;27;20457;-52
2021/03/07 11:41:54;;;;;;;15.30;5.30;;;;;;;3.18;68.94;101719.38;5136114;27;20778;-52